sensor_id;sensor_type;location;lat;lon;timestamp;P1;durP1;ratioP1;P2;durP2;ratioP2
61764;SDS011;50188;48.114;-1.388;2022-10-28T00:00:53;25.20;;;14.30;;
61764;SDS011;50188;48.114;-1.388;2022-10-28T00:03:20;26.65;;;11.93;;
61764;SDS011;50188;48.114;-1.388;2022-10-28T00:05:46;27.88;;;13.18;;
61764;SDS011;50188;48.114;-1.388;2022-10-28T00:08:12;36.30;;;13.55;;
61764;SDS011;50188;48.114;-1.388;2022-10-28T00:10:37;29.27;;;11.98;;
61764;SDS011;50188;48.114;-1.388;2022-10-28T00:13:03;31.67;;;13.52;;
61764;SDS011;50188;48.114;-1.388;2022-10-28T00:15:29;25.90;;;12.55;;
61764;SDS011;50188;48.114;-1.388;2022-10-28T00:17:55;35.72;;;12.63;;
61764;SDS011;50188;48.114;-1.388;2022-10-28T00:20:20;26.80;;;12.98;;
61764;SDS011;50188;48.114;-1.388;2022-10-28T00:22:46;25.17;;;11.80;;
61764;SDS011;50188;48.114;-1.388;2022-10-28T00:25:12;20.38;;;11.65;;
61764;SDS011;50188;48.114;-1.388;2022-10-28T00:27:37;31.25;;;12.35;;
61764;SDS011;50188;48.114;-1.388;2022-10-28T00:30:03;27.77;;;12.55;;
61764;SDS011;50188;48.114;-1.388;2022-10-28T00:32:29;27.83;;;13.43;;
61764;SDS011;50188;48.114;-1.388;2022-10-28T00:34:56;24.45;;;12.00;;
61764;SDS011;50188;48.114;-1.388;2022-10-28T00:37:21;26.55;;;9.95;;
61764;SDS011;50188;48.114;-1.388;2022-10-28T00:39:47;28.65;;;11.20;;
61764;SDS011;50188;48.114;-1.388;2022-10-28T00:42:14;20.63;;;10.00;;
61764;SDS011;50188;48.114;-1.388;2022-10-28T00:44:56;28.13;;;10.82;;
61764;SDS011;50188;48.114;-1.388;2022-10-28T00:47:36;33.30;;;11.10;;
61764;SDS011;50188;48.114;-1.388;2022-10-28T00:50:29;24.35;;;9.88;;
61764;SDS011;50188;48.114;-1.388;2022-10-28T00:53:11;26.77;;;11.25;;
61764;SDS011;50188;48.114;-1.388;2022-10-28T00:55:39;26.70;;;10.98;;
61764;SDS011;50188;48.114;-1.388;2022-10-28T00:58:06;39.88;;;13.00;;
61764;SDS011;50188;48.114;-1.388;2022-10-28T01:00:34;21.65;;;9.98;;
61764;SDS011;50188;48.114;-1.388;2022-10-28T01:03:00;38.53;;;11.05;;
61764;SDS011;50188;48.114;-1.388;2022-10-28T01:05:26;34.90;;;12.55;;
61764;SDS011;50188;48.114;-1.388;2022-10-28T01:07:56;34.25;;;10.77;;
61764;SDS011;50188;48.114;-1.388;2022-10-28T01:10:27;23.65;;;10.15;;
61764;SDS011;50188;48.114;-1.388;2022-10-28T01:13:19;25.13;;;11.02;;
61764;SDS011;50188;48.114;-1.388;2022-10-28T01:16:12;29.17;;;10.73;;
61764;SDS011;50188;48.114;-1.388;2022-10-28T01:19:09;28.58;;;10.90;;
61764;SDS011;50188;48.114;-1.388;2022-10-28T01:22:10;23.20;;;9.93;;
61764;SDS011;50188;48.114;-1.388;2022-10-28T01:33:41;23.15;;;9.80;;
61764;SDS011;50188;48.114;-1.388;2022-10-28T01:36:26;21.02;;;9.25;;
61764;SDS011;50188;48.114;-1.388;2022-10-28T01:45:09;22.30;;;10.45;;
61764;SDS011;50188;48.114;-1.388;2022-10-28T01:47:52;21.30;;;11.02;;
61764;SDS011;50188;48.114;-1.388;2022-10-28T01:50:27;16.60;;;9.07;;
61764;SDS011;50188;48.114;-1.388;2022-10-28T01:53:00;20.17;;;10.80;;
61764;SDS011;50188;48.114;-1.388;2022-10-28T01:55:37;21.02;;;10.40;;
61764;SDS011;50188;48.114;-1.388;2022-10-28T01:58:07;22.38;;;11.65;;
61764;SDS011;50188;48.114;-1.388;2022-10-28T02:00:36;18.17;;;11.07;;
61764;SDS011;50188;48.114;-1.388;2022-10-28T02:03:03;18.50;;;10.13;;
61764;SDS011;50188;48.114;-1.388;2022-10-28T02:05:47;25.27;;;11.15;;
61764;SDS011;50188;48.114;-1.388;2022-10-28T02:08:23;22.23;;;11.00;;
61764;SDS011;50188;48.114;-1.388;2022-10-28T02:11:33;19.45;;;11.02;;
61764;SDS011;50188;48.114;-1.388;2022-10-28T02:14:12;27.17;;;10.63;;
61764;SDS011;50188;48.114;-1.388;2022-10-28T02:16:51;19.02;;;11.07;;
61764;SDS011;50188;48.114;-1.388;2022-10-28T02:19:33;24.27;;;11.43;;
61764;SDS011;50188;48.114;-1.388;2022-10-28T02:22:23;22.85;;;10.80;;
61764;SDS011;50188;48.114;-1.388;2022-10-28T02:25:00;23.73;;;10.52;;
61764;SDS011;50188;48.114;-1.388;2022-10-28T02:27:40;18.42;;;9.73;;
61764;SDS011;50188;48.114;-1.388;2022-10-28T02:30:16;19.73;;;10.07;;
61764;SDS011;50188;48.114;-1.388;2022-10-28T02:32:59;18.95;;;9.80;;
61764;SDS011;50188;48.114;-1.388;2022-10-28T02:35:32;23.85;;;11.02;;
61764;SDS011;50188;48.114;-1.388;2022-10-28T02:38:06;25.63;;;10.75;;
61764;SDS011;50188;48.114;-1.388;2022-10-28T02:40:36;22.80;;;9.77;;
61764;SDS011;50188;48.114;-1.388;2022-10-28T02:43:04;23.88;;;10.70;;
61764;SDS011;50188;48.114;-1.388;2022-10-28T02:45:43;21.73;;;9.60;;
61764;SDS011;50188;48.114;-1.388;2022-10-28T02:48:21;20.92;;;11.48;;
61764;SDS011;50188;48.114;-1.388;2022-10-28T02:50:56;18.02;;;10.25;;
61764;SDS011;50188;48.114;-1.388;2022-10-28T02:53:29;22.92;;;10.95;;
61764;SDS011;50188;48.114;-1.388;2022-10-28T02:56:00;16.27;;;10.43;;
61764;SDS011;50188;48.114;-1.388;2022-10-28T02:58:28;22.55;;;11.23;;
61764;SDS011;50188;48.114;-1.388;2022-10-28T03:01:01;23.38;;;11.07;;
61764;SDS011;50188;48.114;-1.388;2022-10-28T03:03:26;26.25;;;11.80;;
61764;SDS011;50188;48.114;-1.388;2022-10-28T03:05:52;20.35;;;10.18;;
61764;SDS011;50188;48.114;-1.388;2022-10-28T03:08:18;19.15;;;9.57;;
61764;SDS011;50188;48.114;-1.388;2022-10-28T03:10:43;32.88;;;11.20;;
61764;SDS011;50188;48.114;-1.388;2022-10-28T03:13:09;22.02;;;10.80;;
61764;SDS011;50188;48.114;-1.388;2022-10-28T03:15:34;17.58;;;9.65;;
61764;SDS011;50188;48.114;-1.388;2022-10-28T03:18:00;28.80;;;10.93;;
61764;SDS011;50188;48.114;-1.388;2022-10-28T03:20:25;17.65;;;10.23;;
61764;SDS011;50188;48.114;-1.388;2022-10-28T03:22:51;18.92;;;10.73;;
61764;SDS011;50188;48.114;-1.388;2022-10-28T03:25:16;16.27;;;11.43;;
61764;SDS011;50188;48.114;-1.388;2022-10-28T03:27:42;16.52;;;11.18;;
61764;SDS011;50188;48.114;-1.388;2022-10-28T03:30:08;16.05;;;9.75;;
61764;SDS011;50188;48.114;-1.388;2022-10-28T03:32:34;21.08;;;9.63;;
61764;SDS011;50188;48.114;-1.388;2022-10-28T03:34:59;18.35;;;9.50;;
61764;SDS011;50188;48.114;-1.388;2022-10-28T03:37:25;17.48;;;10.07;;
61764;SDS011;50188;48.114;-1.388;2022-10-28T03:39:50;18.40;;;9.55;;
61764;SDS011;50188;48.114;-1.388;2022-10-28T03:42:16;16.45;;;8.52;;
61764;SDS011;50188;48.114;-1.388;2022-10-28T03:44:41;18.52;;;10.15;;
61764;SDS011;50188;48.114;-1.388;2022-10-28T03:47:07;16.13;;;8.93;;
61764;SDS011;50188;48.114;-1.388;2022-10-28T03:49:33;17.10;;;9.18;;
61764;SDS011;50188;48.114;-1.388;2022-10-28T03:51:58;15.75;;;8.73;;
61764;SDS011;50188;48.114;-1.388;2022-10-28T03:54:24;15.10;;;10.13;;
61764;SDS011;50188;48.114;-1.388;2022-10-28T03:56:49;18.05;;;9.70;;
61764;SDS011;50188;48.114;-1.388;2022-10-28T03:59:15;14.32;;;8.73;;
61764;SDS011;50188;48.114;-1.388;2022-10-28T04:01:40;14.38;;;7.60;;
61764;SDS011;50188;48.114;-1.388;2022-10-28T04:04:06;15.10;;;9.20;;
61764;SDS011;50188;48.114;-1.388;2022-10-28T04:06:31;14.63;;;8.43;;
61764;SDS011;50188;48.114;-1.388;2022-10-28T04:08:57;17.35;;;9.90;;
61764;SDS011;50188;48.114;-1.388;2022-10-28T04:11:23;12.20;;;9.13;;
61764;SDS011;50188;48.114;-1.388;2022-10-28T04:13:48;17.75;;;9.45;;
61764;SDS011;50188;48.114;-1.388;2022-10-28T04:16:14;15.80;;;10.55;;
61764;SDS011;50188;48.114;-1.388;2022-10-28T04:18:39;17.42;;;9.57;;
61764;SDS011;50188;48.114;-1.388;2022-10-28T04:21:05;16.33;;;10.57;;
61764;SDS011;50188;48.114;-1.388;2022-10-28T04:23:30;15.10;;;9.07;;
61764;SDS011;50188;48.114;-1.388;2022-10-28T04:25:56;13.90;;;7.97;;
61764;SDS011;50188;48.114;-1.388;2022-10-28T04:28:22;19.88;;;10.88;;
61764;SDS011;50188;48.114;-1.388;2022-10-28T04:30:50;21.55;;;9.90;;
61764;SDS011;50188;48.114;-1.388;2022-10-28T04:33:16;19.55;;;9.88;;
61764;SDS011;50188;48.114;-1.388;2022-10-28T04:35:42;23.80;;;11.98;;
61764;SDS011;50188;48.114;-1.388;2022-10-28T04:38:08;18.17;;;10.45;;
61764;SDS011;50188;48.114;-1.388;2022-10-28T04:40:35;14.07;;;9.20;;
61764;SDS011;50188;48.114;-1.388;2022-10-28T04:43:00;20.08;;;8.90;;
61764;SDS011;50188;48.114;-1.388;2022-10-28T04:45:26;18.27;;;10.50;;
61764;SDS011;50188;48.114;-1.388;2022-10-28T04:47:55;18.13;;;9.75;;
61764;SDS011;50188;48.114;-1.388;2022-10-28T04:50:22;23.60;;;10.73;;
61764;SDS011;50188;48.114;-1.388;2022-10-28T04:52:47;18.63;;;8.90;;
61764;SDS011;50188;48.114;-1.388;2022-10-28T04:55:13;15.23;;;9.88;;
61764;SDS011;50188;48.114;-1.388;2022-10-28T04:57:38;13.98;;;9.85;;
61764;SDS011;50188;48.114;-1.388;2022-10-28T05:00:04;22.08;;;9.63;;
61764;SDS011;50188;48.114;-1.388;2022-10-28T05:02:30;22.40;;;11.05;;
61764;SDS011;50188;48.114;-1.388;2022-10-28T05:04:56;15.68;;;7.97;;
61764;SDS011;50188;48.114;-1.388;2022-10-28T05:07:26;19.92;;;9.18;;
61764;SDS011;50188;48.114;-1.388;2022-10-28T05:09:51;12.85;;;8.50;;
61764;SDS011;50188;48.114;-1.388;2022-10-28T05:12:17;16.77;;;10.55;;
61764;SDS011;50188;48.114;-1.388;2022-10-28T05:14:43;20.95;;;11.65;;
61764;SDS011;50188;48.114;-1.388;2022-10-28T05:17:08;15.15;;;10.70;;
61764;SDS011;50188;48.114;-1.388;2022-10-28T05:19:35;20.08;;;10.95;;
61764;SDS011;50188;48.114;-1.388;2022-10-28T05:22:00;28.83;;;12.25;;
61764;SDS011;50188;48.114;-1.388;2022-10-28T05:24:26;22.77;;;11.25;;
61764;SDS011;50188;48.114;-1.388;2022-10-28T05:26:52;20.60;;;11.73;;
61764;SDS011;50188;48.114;-1.388;2022-10-28T05:29:17;25.75;;;10.82;;
61764;SDS011;50188;48.114;-1.388;2022-10-28T05:31:43;17.35;;;11.73;;
61764;SDS011;50188;48.114;-1.388;2022-10-28T05:34:10;19.23;;;10.57;;
61764;SDS011;50188;48.114;-1.388;2022-10-28T05:36:35;25.67;;;11.05;;
61764;SDS011;50188;48.114;-1.388;2022-10-28T05:39:02;21.13;;;10.88;;
61764;SDS011;50188;48.114;-1.388;2022-10-28T05:41:28;17.52;;;10.50;;
61764;SDS011;50188;48.114;-1.388;2022-10-28T05:43:54;20.40;;;11.00;;
61764;SDS011;50188;48.114;-1.388;2022-10-28T05:46:20;24.05;;;11.95;;
61764;SDS011;50188;48.114;-1.388;2022-10-28T05:48:46;16.48;;;11.73;;
61764;SDS011;50188;48.114;-1.388;2022-10-28T05:51:12;18.42;;;10.52;;
61764;SDS011;50188;48.114;-1.388;2022-10-28T05:53:38;21.83;;;10.70;;
61764;SDS011;50188;48.114;-1.388;2022-10-28T05:56:05;18.08;;;11.43;;
61764;SDS011;50188;48.114;-1.388;2022-10-28T05:58:31;18.65;;;10.15;;
61764;SDS011;50188;48.114;-1.388;2022-10-28T06:00:57;16.15;;;11.23;;
61764;SDS011;50188;48.114;-1.388;2022-10-28T06:03:23;17.98;;;10.50;;
61764;SDS011;50188;48.114;-1.388;2022-10-28T06:05:48;25.45;;;11.45;;
61764;SDS011;50188;48.114;-1.388;2022-10-28T06:08:14;18.70;;;9.65;;
61764;SDS011;50188;48.114;-1.388;2022-10-28T06:10:40;19.55;;;11.15;;
61764;SDS011;50188;48.114;-1.388;2022-10-28T06:13:13;26.45;;;11.25;;
61764;SDS011;50188;48.114;-1.388;2022-10-28T06:15:39;15.93;;;9.00;;
61764;SDS011;50188;48.114;-1.388;2022-10-28T06:18:04;20.63;;;10.70;;
61764;SDS011;50188;48.114;-1.388;2022-10-28T06:20:30;21.70;;;10.02;;
61764;SDS011;50188;48.114;-1.388;2022-10-28T06:22:56;15.40;;;9.90;;
61764;SDS011;50188;48.114;-1.388;2022-10-28T06:25:22;20.23;;;10.75;;
61764;SDS011;50188;48.114;-1.388;2022-10-28T06:27:52;20.38;;;10.57;;
61764;SDS011;50188;48.114;-1.388;2022-10-28T06:30:19;17.60;;;10.35;;
61764;SDS011;50188;48.114;-1.388;2022-10-28T06:32:45;19.88;;;10.75;;
61764;SDS011;50188;48.114;-1.388;2022-10-28T06:35:10;27.75;;;11.52;;
61764;SDS011;50188;48.114;-1.388;2022-10-28T06:37:36;22.98;;;11.07;;
61764;SDS011;50188;48.114;-1.388;2022-10-28T06:40:02;27.10;;;14.05;;
61764;SDS011;50188;48.114;-1.388;2022-10-28T06:42:28;19.80;;;12.75;;
61764;SDS011;50188;48.114;-1.388;2022-10-28T06:44:53;33.05;;;14.20;;
61764;SDS011;50188;48.114;-1.388;2022-10-28T06:47:19;18.80;;;12.98;;
61764;SDS011;50188;48.114;-1.388;2022-10-28T06:52:14;21.75;;;12.18;;
61764;SDS011;50188;48.114;-1.388;2022-10-28T06:54:40;21.45;;;11.18;;
61764;SDS011;50188;48.114;-1.388;2022-10-28T06:57:07;17.35;;;11.10;;
61764;SDS011;50188;48.114;-1.388;2022-10-28T06:59:33;18.88;;;9.63;;
61764;SDS011;50188;48.114;-1.388;2022-10-28T07:01:59;21.73;;;10.77;;
61764;SDS011;50188;48.114;-1.388;2022-10-28T07:04:24;26.85;;;10.68;;
61764;SDS011;50188;48.114;-1.388;2022-10-28T07:06:53;28.75;;;12.15;;
61764;SDS011;50188;48.114;-1.388;2022-10-28T07:11:47;18.58;;;11.27;;
61764;SDS011;50188;48.114;-1.388;2022-10-28T07:14:13;18.92;;;10.55;;
61764;SDS011;50188;48.114;-1.388;2022-10-28T07:16:38;24.73;;;10.80;;
61764;SDS011;50188;48.114;-1.388;2022-10-28T07:19:04;20.63;;;9.80;;
61764;SDS011;50188;48.114;-1.388;2022-10-28T07:21:29;30.35;;;10.73;;
61764;SDS011;50188;48.114;-1.388;2022-10-28T07:23:55;13.60;;;8.82;;
61764;SDS011;50188;48.114;-1.388;2022-10-28T07:26:21;18.38;;;9.23;;
61764;SDS011;50188;48.114;-1.388;2022-10-28T07:28:47;18.13;;;9.13;;
61764;SDS011;50188;48.114;-1.388;2022-10-28T07:31:13;15.82;;;8.82;;
61764;SDS011;50188;48.114;-1.388;2022-10-28T07:33:38;20.38;;;10.43;;
61764;SDS011;50188;48.114;-1.388;2022-10-28T07:36:04;25.95;;;9.57;;
61764;SDS011;50188;48.114;-1.388;2022-10-28T07:40:56;20.27;;;9.98;;
61764;SDS011;50188;48.114;-1.388;2022-10-28T07:43:22;15.70;;;9.73;;
61764;SDS011;50188;48.114;-1.388;2022-10-28T07:45:54;18.90;;;9.10;;
61764;SDS011;50188;48.114;-1.388;2022-10-28T07:48:20;14.32;;;8.35;;
61764;SDS011;50188;48.114;-1.388;2022-10-28T07:50:46;23.50;;;9.77;;
61764;SDS011;50188;48.114;-1.388;2022-10-28T07:53:12;19.17;;;8.77;;
61764;SDS011;50188;48.114;-1.388;2022-10-28T07:55:37;18.10;;;9.48;;
61764;SDS011;50188;48.114;-1.388;2022-10-28T07:58:03;15.02;;;8.95;;
61764;SDS011;50188;48.114;-1.388;2022-10-28T08:00:28;21.73;;;8.10;;
61764;SDS011;50188;48.114;-1.388;2022-10-28T08:02:54;15.32;;;7.82;;
61764;SDS011;50188;48.114;-1.388;2022-10-28T08:05:19;16.48;;;7.47;;
61764;SDS011;50188;48.114;-1.388;2022-10-28T08:07:45;20.30;;;8.25;;
61764;SDS011;50188;48.114;-1.388;2022-10-28T08:10:11;19.05;;;8.38;;
61764;SDS011;50188;48.114;-1.388;2022-10-28T08:12:37;19.05;;;8.32;;
61764;SDS011;50188;48.114;-1.388;2022-10-28T08:15:03;15.90;;;6.70;;
61764;SDS011;50188;48.114;-1.388;2022-10-28T08:17:31;18.52;;;9.02;;
61764;SDS011;50188;48.114;-1.388;2022-10-28T08:19:56;15.95;;;6.35;;
61764;SDS011;50188;48.114;-1.388;2022-10-28T08:22:22;16.58;;;6.85;;
61764;SDS011;50188;48.114;-1.388;2022-10-28T08:24:48;14.80;;;6.05;;
61764;SDS011;50188;48.114;-1.388;2022-10-28T08:27:14;18.25;;;6.93;;
61764;SDS011;50188;48.114;-1.388;2022-10-28T08:29:39;16.92;;;6.65;;
61764;SDS011;50188;48.114;-1.388;2022-10-28T08:32:06;13.57;;;5.70;;
61764;SDS011;50188;48.114;-1.388;2022-10-28T08:34:33;16.02;;;7.20;;
61764;SDS011;50188;48.114;-1.388;2022-10-28T08:36:58;13.65;;;7.22;;
61764;SDS011;50188;48.114;-1.388;2022-10-28T08:39:24;21.25;;;6.82;;
61764;SDS011;50188;48.114;-1.388;2022-10-28T08:41:51;12.60;;;5.45;;
61764;SDS011;50188;48.114;-1.388;2022-10-28T08:44:54;15.75;;;5.68;;
61764;SDS011;50188;48.114;-1.388;2022-10-28T08:47:43;13.10;;;4.80;;
61764;SDS011;50188;48.114;-1.388;2022-10-28T08:50:18;20.88;;;7.22;;
61764;SDS011;50188;48.114;-1.388;2022-10-28T08:52:57;15.48;;;6.40;;
61764;SDS011;50188;48.114;-1.388;2022-10-28T08:55:40;17.02;;;6.57;;
61764;SDS011;50188;48.114;-1.388;2022-10-28T08:58:10;16.80;;;6.18;;
61764;SDS011;50188;48.114;-1.388;2022-10-28T09:00:52;12.90;;;5.25;;
61764;SDS011;50188;48.114;-1.388;2022-10-28T09:03:21;12.25;;;5.45;;
61764;SDS011;50188;48.114;-1.388;2022-10-28T09:05:53;13.35;;;5.00;;
61764;SDS011;50188;48.114;-1.388;2022-10-28T09:08:25;14.88;;;5.05;;
61764;SDS011;50188;48.114;-1.388;2022-10-28T09:11:05;11.90;;;5.25;;
61764;SDS011;50188;48.114;-1.388;2022-10-28T09:13:58;14.05;;;6.00;;
61764;SDS011;50188;48.114;-1.388;2022-10-28T09:16:40;13.90;;;4.55;;
61764;SDS011;50188;48.114;-1.388;2022-10-28T09:19:31;11.00;;;4.63;;
61764;SDS011;50188;48.114;-1.388;2022-10-28T09:22:14;12.65;;;3.55;;
61764;SDS011;50188;48.114;-1.388;2022-10-28T09:24:51;16.38;;;4.88;;
61764;SDS011;50188;48.114;-1.388;2022-10-28T09:27:37;14.45;;;4.85;;
61764;SDS011;50188;48.114;-1.388;2022-10-28T09:30:27;11.98;;;4.65;;
61764;SDS011;50188;48.114;-1.388;2022-10-28T09:33:06;9.85;;;3.25;;
61764;SDS011;50188;48.114;-1.388;2022-10-28T09:35:53;15.13;;;3.42;;
61764;SDS011;50188;48.114;-1.388;2022-10-28T09:38:24;8.15;;;2.72;;
61764;SDS011;50188;48.114;-1.388;2022-10-28T09:41:04;7.13;;;3.08;;
61764;SDS011;50188;48.114;-1.388;2022-10-28T09:43:47;9.10;;;2.85;;
61764;SDS011;50188;48.114;-1.388;2022-10-28T09:46:19;9.75;;;2.80;;
61764;SDS011;50188;48.114;-1.388;2022-10-28T09:48:51;9.35;;;3.30;;
61764;SDS011;50188;48.114;-1.388;2022-10-28T09:51:25;7.93;;;3.35;;
61764;SDS011;50188;48.114;-1.388;2022-10-28T09:53:57;10.00;;;2.65;;
61764;SDS011;50188;48.114;-1.388;2022-10-28T09:56:24;11.20;;;3.90;;
61764;SDS011;50188;48.114;-1.388;2022-10-28T09:58:51;11.48;;;4.00;;
61764;SDS011;50188;48.114;-1.388;2022-10-28T10:01:18;14.60;;;5.45;;
61764;SDS011;50188;48.114;-1.388;2022-10-28T10:03:47;10.65;;;2.97;;
61764;SDS011;50188;48.114;-1.388;2022-10-28T10:06:19;6.30;;;2.72;;
61764;SDS011;50188;48.114;-1.388;2022-10-28T10:08:51;11.82;;;3.70;;
61764;SDS011;50188;48.114;-1.388;2022-10-28T10:11:37;15.25;;;3.50;;
61764;SDS011;50188;48.114;-1.388;2022-10-28T10:14:10;5.80;;;2.78;;
61764;SDS011;50188;48.114;-1.388;2022-10-28T10:16:54;10.52;;;2.78;;
61764;SDS011;50188;48.114;-1.388;2022-10-28T10:19:23;12.02;;;3.58;;
61764;SDS011;50188;48.114;-1.388;2022-10-28T10:21:52;27.30;;;6.35;;
61764;SDS011;50188;48.114;-1.388;2022-10-28T10:24:30;30.27;;;5.78;;
61764;SDS011;50188;48.114;-1.388;2022-10-28T10:26:59;12.15;;;2.72;;
61764;SDS011;50188;48.114;-1.388;2022-10-28T10:29:28;8.20;;;2.70;;
61764;SDS011;50188;48.114;-1.388;2022-10-28T10:32:06;4.22;;;2.40;;
61764;SDS011;50188;48.114;-1.388;2022-10-28T10:34:40;8.73;;;2.45;;
61764;SDS011;50188;48.114;-1.388;2022-10-28T10:37:17;9.70;;;2.42;;
61764;SDS011;50188;48.114;-1.388;2022-10-28T10:39:49;9.07;;;2.03;;
61764;SDS011;50188;48.114;-1.388;2022-10-28T10:42:24;5.65;;;1.95;;
61764;SDS011;50188;48.114;-1.388;2022-10-28T10:44:58;6.65;;;2.50;;
61764;SDS011;50188;48.114;-1.388;2022-10-28T10:47:26;8.25;;;2.63;;
61764;SDS011;50188;48.114;-1.388;2022-10-28T10:49:53;7.75;;;3.00;;
61764;SDS011;50188;48.114;-1.388;2022-10-28T10:52:47;7.93;;;2.72;;
61764;SDS011;50188;48.114;-1.388;2022-10-28T10:55:36;9.15;;;2.80;;
61764;SDS011;50188;48.114;-1.388;2022-10-28T10:58:05;6.63;;;2.60;;
61764;SDS011;50188;48.114;-1.388;2022-10-28T11:00:43;13.23;;;2.75;;
61764;SDS011;50188;48.114;-1.388;2022-10-28T11:03:16;9.50;;;3.60;;
61764;SDS011;50188;48.114;-1.388;2022-10-28T11:05:47;14.48;;;3.17;;
61764;SDS011;50188;48.114;-1.388;2022-10-28T11:08:22;7.22;;;2.30;;
61764;SDS011;50188;48.114;-1.388;2022-10-28T11:11:04;7.93;;;1.93;;
61764;SDS011;50188;48.114;-1.388;2022-10-28T11:13:33;6.72;;;2.47;;
61764;SDS011;50188;48.114;-1.388;2022-10-28T11:16:00;13.45;;;2.65;;
61764;SDS011;50188;48.114;-1.388;2022-10-28T11:18:27;8.65;;;2.67;;
61764;SDS011;50188;48.114;-1.388;2022-10-28T11:24:23;9.32;;;2.20;;
61764;SDS011;50188;48.114;-1.388;2022-10-28T11:27:09;12.75;;;3.35;;
61764;SDS011;50188;48.114;-1.388;2022-10-28T11:29:43;10.68;;;2.58;;
61764;SDS011;50188;48.114;-1.388;2022-10-28T11:35:19;7.63;;;3.22;;
61764;SDS011;50188;48.114;-1.388;2022-10-28T11:38:13;7.65;;;2.00;;
61764;SDS011;50188;48.114;-1.388;2022-10-28T11:41:10;15.48;;;2.83;;
61764;SDS011;50188;48.114;-1.388;2022-10-28T11:43:59;16.75;;;2.78;;
61764;SDS011;50188;48.114;-1.388;2022-10-28T11:46:29;12.48;;;3.13;;
61764;SDS011;50188;48.114;-1.388;2022-10-28T11:49:27;8.85;;;2.67;;
61764;SDS011;50188;48.114;-1.388;2022-10-28T11:52:18;14.32;;;3.42;;
61764;SDS011;50188;48.114;-1.388;2022-10-28T12:04:26;6.95;;;3.00;;
61764;SDS011;50188;48.114;-1.388;2022-10-28T12:07:18;5.43;;;2.28;;
61764;SDS011;50188;48.114;-1.388;2022-10-28T12:13:06;10.45;;;2.55;;
61764;SDS011;50188;48.114;-1.388;2022-10-28T12:15:54;6.65;;;2.55;;
61764;SDS011;50188;48.114;-1.388;2022-10-28T12:18:31;5.35;;;2.35;;
61764;SDS011;50188;48.114;-1.388;2022-10-28T12:21:14;7.32;;;3.83;;
61764;SDS011;50188;48.114;-1.388;2022-10-28T12:23:52;7.38;;;2.63;;
61764;SDS011;50188;48.114;-1.388;2022-10-28T12:26:20;7.95;;;2.95;;
61764;SDS011;50188;48.114;-1.388;2022-10-28T12:28:53;8.95;;;2.10;;
61764;SDS011;50188;48.114;-1.388;2022-10-28T12:31:22;7.95;;;2.75;;
61764;SDS011;50188;48.114;-1.388;2022-10-28T12:33:52;14.32;;;3.53;;
61764;SDS011;50188;48.114;-1.388;2022-10-28T12:36:30;7.18;;;2.72;;
61764;SDS011;50188;48.114;-1.388;2022-10-28T12:39:17;9.25;;;3.92;;
61764;SDS011;50188;48.114;-1.388;2022-10-28T12:44:25;8.10;;;2.78;;
61764;SDS011;50188;48.114;-1.388;2022-10-28T12:50:03;9.18;;;2.88;;
61764;SDS011;50188;48.114;-1.388;2022-10-28T12:52:50;5.78;;;2.10;;
61764;SDS011;50188;48.114;-1.388;2022-10-28T12:55:41;9.18;;;3.70;;
61764;SDS011;50188;48.114;-1.388;2022-10-28T13:01:18;5.70;;;2.13;;
61764;SDS011;50188;48.114;-1.388;2022-10-28T13:03:48;11.77;;;2.20;;
61764;SDS011;50188;48.114;-1.388;2022-10-28T13:06:20;6.82;;;2.47;;
61764;SDS011;50188;48.114;-1.388;2022-10-28T13:09:46;8.70;;;2.33;;
61764;SDS011;50188;48.114;-1.388;2022-10-28T13:12:12;8.40;;;2.97;;
61764;SDS011;50188;48.114;-1.388;2022-10-28T13:15:14;7.30;;;2.33;;
61764;SDS011;50188;48.114;-1.388;2022-10-28T13:21:11;5.28;;;1.92;;
61764;SDS011;50188;48.114;-1.388;2022-10-28T13:23:57;9.38;;;2.35;;
61764;SDS011;50188;48.114;-1.388;2022-10-28T13:26:36;13.50;;;3.13;;
61764;SDS011;50188;48.114;-1.388;2022-10-28T13:29:15;8.23;;;2.45;;
61764;SDS011;50188;48.114;-1.388;2022-10-28T13:31:48;9.52;;;3.08;;
61764;SDS011;50188;48.114;-1.388;2022-10-28T13:34:15;9.02;;;2.30;;
61764;SDS011;50188;48.114;-1.388;2022-10-28T13:36:54;5.82;;;2.03;;
61764;SDS011;50188;48.114;-1.388;2022-10-28T13:39:38;8.52;;;2.50;;
61764;SDS011;50188;48.114;-1.388;2022-10-28T13:45:42;8.73;;;2.97;;
61764;SDS011;50188;48.114;-1.388;2022-10-28T13:48:31;8.95;;;2.90;;
61764;SDS011;50188;48.114;-1.388;2022-10-28T13:51:25;6.40;;;2.25;;
61764;SDS011;50188;48.114;-1.388;2022-10-28T13:53:55;7.22;;;2.38;;
61764;SDS011;50188;48.114;-1.388;2022-10-28T13:56:26;11.57;;;2.65;;
61764;SDS011;50188;48.114;-1.388;2022-10-28T13:59:16;8.70;;;2.10;;
61764;SDS011;50188;48.114;-1.388;2022-10-28T14:02:02;10.10;;;2.63;;
61764;SDS011;50188;48.114;-1.388;2022-10-28T14:04:38;10.73;;;2.78;;
61764;SDS011;50188;48.114;-1.388;2022-10-28T14:07:16;5.38;;;2.00;;
61764;SDS011;50188;48.114;-1.388;2022-10-28T14:09:45;9.35;;;3.22;;
61764;SDS011;50188;48.114;-1.388;2022-10-28T14:12:22;10.45;;;2.33;;
61764;SDS011;50188;48.114;-1.388;2022-10-28T14:17:35;10.23;;;2.75;;
61764;SDS011;50188;48.114;-1.388;2022-10-28T14:20:03;12.73;;;2.70;;
61764;SDS011;50188;48.114;-1.388;2022-10-28T14:22:48;6.20;;;2.50;;
61764;SDS011;50188;48.114;-1.388;2022-10-28T14:31:17;7.55;;;2.67;;
61764;SDS011;50188;48.114;-1.388;2022-10-28T14:39:50;10.73;;;3.35;;
61764;SDS011;50188;48.114;-1.388;2022-10-28T14:42:34;5.63;;;2.35;;
61764;SDS011;50188;48.114;-1.388;2022-10-28T14:45:23;10.10;;;3.28;;
61764;SDS011;50188;48.114;-1.388;2022-10-28T14:48:07;11.82;;;3.72;;
61764;SDS011;50188;48.114;-1.388;2022-10-28T14:50:58;11.27;;;3.10;;
61764;SDS011;50188;48.114;-1.388;2022-10-28T14:53:29;7.15;;;2.17;;
61764;SDS011;50188;48.114;-1.388;2022-10-28T14:55:59;9.85;;;2.83;;
61764;SDS011;50188;48.114;-1.388;2022-10-28T14:58:36;18.08;;;3.47;;
61764;SDS011;50188;48.114;-1.388;2022-10-28T15:03:53;12.38;;;3.42;;
61764;SDS011;50188;48.114;-1.388;2022-10-28T15:06:30;9.52;;;2.28;;
61764;SDS011;50188;48.114;-1.388;2022-10-28T15:09:04;30.60;;;5.05;;
61764;SDS011;50188;48.114;-1.388;2022-10-28T15:11:39;4.38;;;2.08;;
61764;SDS011;50188;48.114;-1.388;2022-10-28T15:14:12;6.45;;;3.75;;
61764;SDS011;50188;48.114;-1.388;2022-10-28T15:16:58;7.18;;;3.22;;
61764;SDS011;50188;48.114;-1.388;2022-10-28T15:19:27;10.88;;;3.67;;
61764;SDS011;50188;48.114;-1.388;2022-10-28T15:22:03;9.93;;;3.58;;
61764;SDS011;50188;48.114;-1.388;2022-10-28T15:24:30;9.52;;;3.90;;
61764;SDS011;50188;48.114;-1.388;2022-10-28T15:26:56;10.77;;;3.45;;
61764;SDS011;50188;48.114;-1.388;2022-10-28T15:29:22;8.52;;;2.83;;
61764;SDS011;50188;48.114;-1.388;2022-10-28T15:34:36;13.43;;;3.80;;
61764;SDS011;50188;48.114;-1.388;2022-10-28T15:37:01;13.27;;;4.25;;
61764;SDS011;50188;48.114;-1.388;2022-10-28T15:39:29;19.75;;;4.47;;
61764;SDS011;50188;48.114;-1.388;2022-10-28T15:41:55;17.63;;;4.57;;
61764;SDS011;50188;48.114;-1.388;2022-10-28T15:44:25;7.85;;;3.90;;
61764;SDS011;50188;48.114;-1.388;2022-10-28T15:47:06;10.02;;;3.47;;
61764;SDS011;50188;48.114;-1.388;2022-10-28T15:49:43;7.03;;;2.80;;
61764;SDS011;50188;48.114;-1.388;2022-10-28T15:52:20;10.70;;;4.18;;
61764;SDS011;50188;48.114;-1.388;2022-10-28T15:54:54;35.80;;;4.47;;
61764;SDS011;50188;48.114;-1.388;2022-10-28T15:57:23;11.68;;;3.88;;
61764;SDS011;50188;48.114;-1.388;2022-10-28T16:02:51;10.32;;;3.53;;
61764;SDS011;50188;48.114;-1.388;2022-10-28T16:05:42;10.30;;;3.03;;
61764;SDS011;50188;48.114;-1.388;2022-10-28T16:08:19;14.50;;;3.40;;
61764;SDS011;50188;48.114;-1.388;2022-10-28T16:13:29;7.00;;;3.15;;